Flight Track Log - Related Links

Times and Time Zones

All times are in EDT time to prevent confusion due to time zone crossing. See the N152SR flight status page for this flight to view local times or setup timezone preferences in your user account.

Time Position Orientation Groundspeed Altitude Reporting Facility
EDT Latitude Longitude Course Direction KTS MPH feet Rate Location/Type
Fri 03:29:03 PM 42.4667 -71.2667 216° Southwest 75 86 900  Level KA90
Fri 03:30:09 PM 42.4500 -71.2833 216° Southwest 137 158 1,900 950 Climbing KA90
Fri 03:31:03 PM 42.4167 -71.3167 216° Southwest 151 174 2,800 842 Climbing KA90
Fri 03:32:03 PM 42.4000 -71.3667 246° West 156 180 3,500 900 Climbing KA90
Fri 03:33:03 PM 42.3667 -71.4167 228° Southwest 149 171 4,600 1,050 Climbing KA90
Fri 03:34:03 PM 42.3333 -71.4500 216° Southwest 148 170 5,600 821 Climbing KA90
Fri 03:34:38 PM 42.3150 -71.4769 227° Southwest 145 167 5,900 189 Climbing Boston Center
Fri 03:35:38 PM 42.2842 -71.5225 228° Southwest 178 205 5,900  Level Boston Center
Fri 03:36:39 PM 42.2469 -71.5706 224° Southwest 188 216 5,900 49 Level Boston Center
Fri 03:37:40 PM 42.2058 -71.6244 224° Southwest 189 217 6,000 52 Climbing Boston Center
Fri 03:38:35 PM 42.1914 -71.6781 250° West 193 222 6,000  Level Boston Center
Fri 03:39:36 PM 42.1733 -71.7481 251° West 190 219 6,000  Level Boston Center
Fri 03:40:37 PM 42.1547 -71.8156 250° West 192 221 6,000  Level Boston Center
Fri 03:41:37 PM 42.1364 -71.8886 251° West 192 221 6,000  Level Boston Center
Fri 03:42:50 PM 42.1181 -71.9669 253° West 188 216 6,000  Level Boston Center
Fri 03:43:39 PM 42.1036 -72.0203 250° West 188 216 6,000  Level Boston Center
Fri 03:44:40 PM 42.0664 -72.0708 225° Southwest 187 215 6,000  Level Boston Center
Fri 03:45:41 PM 42.0289 -72.1158 222° Southwest 183 211 6,000  Level Boston Center
Fri 03:46:42 PM 41.9894 -72.1608 220° Southwest 182 209 6,000  Level Boston Center
Fri 03:47:43 PM 41.9519 -72.2000 218° Southwest 178 205 6,000  Level Boston Center
Fri 03:48:49 PM 41.9064 -72.2561 223° Southwest 182 209 6,000  Level Boston Center
Fri 03:49:44 PM 41.8731 -72.2922 219° Southwest 180 207 6,000  Level Boston Center
Fri 03:50:45 PM 41.8336 -72.3369 220° Southwest 182 209 6,000  Level Boston Center
Fri 03:51:52 PM 41.7897 -72.3844 219° Southwest 184 212 6,000  Level Boston Center
Fri 03:52:47 PM 41.7564 -72.4261 223° Southwest 182 209 6,000  Level Boston Center
Fri 03:53:48 PM 41.7147 -72.4678 217° Southwest 183 211 6,000  Level Boston Center
Fri 03:54:49 PM 41.6750 -72.5122 220° Southwest 184 212 6,000  Level Boston Center
Fri 03:55:50 PM 41.6375 -72.5567 222° Southwest 185 213 6,000  Level Boston Center
Fri 03:56:51 PM 41.5978 -72.6039 222° Southwest 181 208 6,000  Level Boston Center
Fri 03:57:52 PM 41.5603 -72.6508 223° Southwest 183 211 6,000 29 Level Boston Center
Fri 04:00:21 PM 41.5167 -72.8167 251° West 187 215 6,100 28 Climbing New York TRACON
Fri 04:01:27 PM 41.5000 -72.8833 252° West 193 222 6,100  Level New York TRACON
Fri 04:02:21 PM 41.4833 -72.9500 252° West 192 221 6,100  Level New York TRACON
Fri 04:03:21 PM 41.4500 -73.0000 228° Southwest 190 219 6,100  Level New York TRACON
Fri 04:04:21 PM 41.4333 -73.0667 252° West 190 219 6,100  Level New York TRACON
Fri 04:05:21 PM 41.4167 -73.1333 252° West 192 221 6,100  Level New York TRACON
Fri 04:06:21 PM 41.4000 -73.2000 252° West 190 219 6,100  Level New York TRACON
Fri 04:07:21 PM 41.3833 -73.2667 252° West 187 215 6,100  Level New York TRACON
Fri 04:08:21 PM 41.3500 -73.3333 236° Southwest 189 217 6,100  Level New York TRACON
Fri 04:09:21 PM 41.3333 -73.4000 252° West 186 214 6,100  Level New York TRACON
Fri 04:10:21 PM 41.3167 -73.4667 252° West 187 215 6,100  Level New York TRACON
Fri 04:11:27 PM 41.3000 -73.5333 252° West 187 215 6,100  Level New York TRACON
Fri 04:13:27 PM 41.2667 -73.6667 252° West 192 221 6,100 -241 Level New York TRACON
Fri 04:14:21 PM 41.2333 -73.7000 217° Southwest 184 212 5,400 -895 Descending New York TRACON
Fri 04:15:21 PM 41.2000 -73.7500 228° Southwest 180 207 4,400 -800 Descending New York TRACON
Fri 04:16:21 PM 41.1667 -73.8000 228° Southwest 168 193 3,800 -381 Descending New York TRACON
Fri 04:17:27 PM 41.1500 -73.8667 252° West 156 180 3,600 -333 Descending New York TRACON
Fri 04:18:27 PM 41.1500 -73.9167 270° West 165 190 3,100 -550 Descending New York TRACON
Fri 04:19:27 PM 41.1333 -73.9833 252° West 160 184 2,500 -300 Descending New York TRACON
Fri 04:20:27 PM 41.1167 -74.0167 236° Southwest 144 166 2,500  Level New York TRACON

Login

Don't have an account? Register now (free) for customized features, flight alerts, and more!